createdAt,value
2022-10-29T00:00:53.007Z,0.82
2022-10-29T00:03:21.961Z,0.73
2022-10-29T00:05:57.763Z,0.70
2022-10-29T00:08:26.343Z,0.93
2022-10-29T00:10:54.923Z,0.80
2022-10-29T00:13:24.886Z,0.60
2022-10-29T00:15:53.488Z,0.80
2022-10-29T00:18:22.041Z,0.80
2022-10-29T00:20:50.649Z,0.70
2022-10-29T00:23:19.293Z,0.80
2022-10-29T00:25:47.847Z,0.80
2022-10-29T00:28:16.435Z,0.70
2022-10-29T00:30:46.471Z,0.60
2022-10-29T00:33:16.594Z,0.80
2022-10-29T00:35:45.277Z,0.73
2022-10-29T00:38:13.807Z,0.70
2022-10-29T00:40:42.366Z,0.80
2022-10-29T00:43:14.503Z,0.70
2022-10-29T00:45:46.484Z,0.80
2022-10-29T00:48:16.662Z,0.90
2022-10-29T00:50:45.288Z,0.70
2022-10-29T00:53:14.309Z,0.85
2022-10-29T00:55:43.044Z,0.90
2022-10-29T00:58:12.310Z,1.02
2022-10-29T01:00:41.071Z,0.90
2022-10-29T01:03:09.642Z,0.70
2022-10-29T01:05:39.791Z,0.82
2022-10-29T01:08:08.476Z,1.35
2022-10-29T01:10:42.801Z,1.20
2022-10-29T01:13:18.540Z,1.23
2022-10-29T01:15:50.523Z,1.20
2022-10-29T01:18:21.571Z,1.50
2022-10-29T01:21:01.199Z,1.30
2022-10-29T01:23:38.675Z,1.15
2022-10-29T01:26:20.862Z,1.20
2022-10-29T01:29:01.142Z,1.90
2022-10-29T01:31:34.386Z,1.67
2022-10-29T01:34:07.546Z,1.65
2022-10-29T01:36:42.065Z,1.55
2022-10-29T01:39:15.475Z,1.63
2022-10-29T01:41:47.771Z,1.63
2022-10-29T01:44:19.392Z,1.92
2022-10-29T01:46:51.621Z,1.55
2022-10-29T01:49:22.994Z,1.88
2022-10-29T01:51:51.824Z,2.00
2022-10-29T01:54:20.381Z,2.00
2022-10-29T01:56:55.185Z,1.70
2022-10-29T01:59:36.050Z,1.63
2022-10-29T02:02:17.620Z,1.70
2022-10-29T02:04:56.680Z,1.67
2022-10-29T02:07:32.360Z,2.10
2022-10-29T02:10:05.339Z,2.10
2022-10-29T02:12:36.628Z,1.77
2022-10-29T02:15:06.584Z,2.22
2022-10-29T02:17:36.558Z,1.92
2022-10-29T02:20:06.002Z,2.65
2022-10-29T02:22:34.703Z,2.70
2022-10-29T02:25:03.372Z,2.25
2022-10-29T02:27:32.059Z,2.65
2022-10-29T02:30:00.627Z,3.03
2022-10-29T02:32:29.441Z,2.78
2022-10-29T02:34:59.352Z,2.88
2022-10-29T02:37:28.000Z,2.97
2022-10-29T02:39:56.548Z,3.10
2022-10-29T02:42:25.166Z,3.13
2022-10-29T02:44:53.771Z,3.25
2022-10-29T02:47:22.395Z,3.70
2022-10-29T02:49:50.939Z,4.10
2022-10-29T02:52:20.886Z,4.30
2022-10-29T02:54:49.444Z,5.05
2022-10-29T02:57:18.011Z,5.22
2022-10-29T02:59:46.564Z,5.57
2022-10-29T03:02:15.169Z,6.18
2022-10-29T03:04:44.757Z,6.47
2022-10-29T03:07:13.305Z,5.97
2022-10-29T03:09:43.259Z,5.63
2022-10-29T03:12:11.924Z,5.55
2022-10-29T03:14:40.454Z,6.00
2022-10-29T03:17:09.016Z,5.03
2022-10-29T03:19:37.667Z,5.18
2022-10-29T03:22:06.251Z,5.55
2022-10-29T03:24:34.791Z,5.32
2022-10-29T03:27:04.706Z,5.18
2022-10-29T03:29:33.354Z,4.07
2022-10-29T03:32:01.999Z,4.68
2022-10-29T03:34:30.567Z,4.60
2022-10-29T03:36:59.214Z,4.85
2022-10-29T03:39:27.757Z,4.60
2022-10-29T03:41:56.323Z,4.47
2022-10-29T03:44:26.294Z,4.55
2022-10-29T03:46:54.874Z,4.43
2022-10-29T03:49:23.403Z,4.60
2022-10-29T03:51:51.991Z,4.35
2022-10-29T03:54:20.648Z,4.57
2022-10-29T03:56:49.222Z,4.97
2022-10-29T03:59:17.790Z,4.68
2022-10-29T04:01:47.818Z,5.68
2022-10-29T04:04:16.586Z,5.57
2022-10-29T04:06:45.140Z,5.75
2022-10-29T04:09:13.712Z,5.95
2022-10-29T04:11:42.294Z,5.65
2022-10-29T04:14:10.831Z,5.32
2022-10-29T04:16:39.450Z,5.90
2022-10-29T04:19:09.479Z,6.10
2022-10-29T04:30:04.100Z,7.05
2022-10-29T04:32:32.710Z,6.93
2022-10-29T04:35:02.667Z,6.80
2022-10-29T04:37:31.358Z,7.30
2022-10-29T04:39:59.914Z,7.13
2022-10-29T04:42:28.453Z,7.57
2022-10-29T04:44:57.024Z,7.07
2022-10-29T04:47:25.613Z,7.18
2022-10-29T04:49:54.183Z,6.68
2022-10-29T04:52:24.209Z,6.65
2022-10-29T04:54:52.813Z,6.53
2022-10-29T04:57:21.360Z,7.13
2022-10-29T04:59:49.910Z,6.80
2022-10-29T05:02:18.458Z,7.28
2022-10-29T05:04:47.466Z,6.85
2022-10-29T05:07:16.071Z,7.22
2022-10-29T05:09:45.982Z,7.07
2022-10-29T05:12:14.531Z,7.03
2022-10-29T05:14:43.099Z,6.85
2022-10-29T05:17:11.713Z,6.72
2022-10-29T05:19:40.328Z,7.20
2022-10-29T05:22:08.967Z,6.63
2022-10-29T05:24:37.511Z,6.75
2022-10-29T05:27:08.828Z,6.93
2022-10-29T05:29:37.428Z,6.80
2022-10-29T05:32:06.223Z,6.55
2022-10-29T05:34:34.762Z,7.13
2022-10-29T05:37:03.302Z,6.30
2022-10-29T05:39:31.924Z,6.30
2022-10-29T05:42:00.467Z,6.35
2022-10-29T05:44:30.373Z,6.15
2022-10-29T05:46:58.943Z,6.20
2022-10-29T05:49:27.482Z,6.10
2022-10-29T05:51:56.134Z,6.00
2022-10-29T05:54:24.687Z,6.15
2022-10-29T05:56:53.259Z,5.78
2022-10-29T05:59:21.856Z,5.53
2022-10-29T06:01:51.896Z,4.93
2022-10-29T06:04:20.670Z,4.95
2022-10-29T06:06:49.289Z,4.68
2022-10-29T06:09:18.153Z,5.22
2022-10-29T06:11:46.707Z,4.90
2022-10-29T06:14:15.416Z,4.25
2022-10-29T06:16:44.156Z,4.10
2022-10-29T06:19:14.073Z,3.70
2022-10-29T06:21:42.767Z,3.60
2022-10-29T06:24:12.247Z,3.40
2022-10-29T06:26:40.800Z,3.33
2022-10-29T06:29:09.411Z,3.40
2022-10-29T06:31:38.034Z,2.70
2022-10-29T06:34:06.578Z,2.30
2022-10-29T06:36:36.535Z,2.05
2022-10-29T06:39:05.193Z,2.15
2022-10-29T06:41:33.736Z,1.80
2022-10-29T06:44:02.355Z,2.08
2022-10-29T06:46:30.959Z,2.35
2022-10-29T06:48:59.538Z,2.08
2022-10-29T06:51:28.164Z,1.88
2022-10-29T06:53:58.121Z,1.58
2022-10-29T06:56:26.687Z,1.80
2022-10-29T06:58:55.265Z,1.67
2022-10-29T07:01:25.539Z,1.83
2022-10-29T07:03:56.336Z,1.60
2022-10-29T07:06:24.879Z,1.65
2022-10-29T07:08:53.531Z,1.55
2022-10-29T07:11:23.436Z,1.70
2022-10-29T07:13:51.996Z,1.73
2022-10-29T07:16:20.593Z,1.90
2022-10-29T07:18:49.257Z,1.52
2022-10-29T07:21:17.809Z,1.67
2022-10-29T07:23:46.405Z,1.60
2022-10-29T07:26:14.970Z,1.45
2022-10-29T07:28:44.922Z,1.50
2022-10-29T07:31:13.524Z,1.95
2022-10-29T07:33:42.070Z,1.85
2022-10-29T07:36:10.697Z,1.70
2022-10-29T07:38:39.236Z,1.60
2022-10-29T07:41:07.950Z,2.08
2022-10-29T07:43:36.491Z,1.52
2022-10-29T07:46:06.459Z,1.90
2022-10-29T07:48:35.074Z,1.60
2022-10-29T07:51:03.987Z,2.00
2022-10-29T07:53:32.815Z,1.65
2022-10-29T07:56:01.525Z,1.63
2022-10-29T07:58:30.127Z,1.55
2022-10-29T08:01:01.044Z,1.70
2022-10-29T08:03:31.035Z,2.00
2022-10-29T08:05:59.652Z,1.92
2022-10-29T08:08:28.257Z,1.73
2022-10-29T08:11:00.753Z,1.65
2022-10-29T08:13:29.487Z,1.60
2022-10-29T08:15:58.040Z,1.70
2022-10-29T08:18:26.630Z,1.73
2022-10-29T08:20:56.548Z,1.40
2022-10-29T08:23:25.088Z,1.50
2022-10-29T08:25:53.631Z,2.38
2022-10-29T08:28:25.629Z,1.40
2022-10-29T08:30:54.592Z,1.42
2022-10-29T08:33:23.142Z,1.75
2022-10-29T08:35:52.720Z,1.45
2022-10-29T08:38:23.387Z,1.55
2022-10-29T08:40:58.561Z,1.95
2022-10-29T08:43:48.220Z,1.60
2022-10-29T08:46:19.329Z,1.30
2022-10-29T08:48:49.876Z,1.50
2022-10-29T08:51:21.489Z,1.67
2022-10-29T08:54:10.245Z,1.40
2022-10-29T08:56:41.800Z,1.48
2022-10-29T08:59:13.541Z,1.63
2022-10-29T09:01:42.391Z,1.23
2022-10-29T09:04:20.656Z,1.10
2022-10-29T09:06:52.151Z,1.20
2022-10-29T09:09:29.207Z,1.50
2022-10-29T09:12:04.355Z,1.30
2022-10-29T09:14:48.286Z,1.75
2022-10-29T09:17:23.471Z,0.90
2022-10-29T09:20:05.236Z,1.20
2022-10-29T09:22:39.535Z,1.52
2022-10-29T09:25:19.188Z,1.10
2022-10-29T09:27:56.282Z,0.90
2022-10-29T09:30:25.154Z,1.05
2022-10-29T09:32:58.422Z,1.10
2022-10-29T09:35:36.570Z,1.17
2022-10-29T09:38:08.973Z,1.55
2022-10-29T09:40:40.146Z,1.15
2022-10-29T09:43:16.697Z,0.80
2022-10-29T09:45:48.057Z,0.90
2022-10-29T09:48:19.207Z,0.90
2022-10-29T09:50:54.523Z,1.00
2022-10-29T09:53:23.133Z,0.73
2022-10-29T09:55:53.902Z,0.98
2022-10-29T09:58:23.976Z,0.95
2022-10-29T10:00:52.900Z,0.75
2022-10-29T10:03:23.667Z,0.98
2022-10-29T10:05:59.027Z,1.05
2022-10-29T10:08:27.597Z,1.30
2022-10-29T10:10:58.314Z,0.73
2022-10-29T10:13:27.986Z,0.80
2022-10-29T10:15:57.348Z,0.85
2022-10-29T10:18:26.460Z,1.40
2022-10-29T10:21:06.383Z,1.10
2022-10-29T10:23:42.758Z,0.90
2022-10-29T10:26:29.805Z,1.17
2022-10-29T10:29:12.223Z,0.80
2022-10-29T10:31:40.817Z,0.90
2022-10-29T10:34:20.140Z,0.95
2022-10-29T10:36:50.694Z,1.17
2022-10-29T10:39:27.911Z,1.00
2022-10-29T10:41:57.381Z,1.00
2022-10-29T10:44:28.422Z,0.95
2022-10-29T10:46:58.356Z,0.93
2022-10-29T10:49:32.017Z,1.00
2022-10-29T10:52:01.462Z,1.15
2022-10-29T10:54:32.121Z,1.20
2022-10-29T10:57:02.594Z,0.85
2022-10-29T10:59:45.051Z,1.00
2022-10-29T11:02:18.750Z,1.13
2022-10-29T11:04:48.384Z,1.02
2022-10-29T11:07:18.127Z,0.80
2022-10-29T11:09:48.636Z,1.00
2022-10-29T11:12:21.642Z,0.88
2022-10-29T11:14:53.315Z,1.10
2022-10-29T11:17:28.083Z,0.88
2022-10-29T11:19:58.360Z,0.90
2022-10-29T11:22:31.236Z,0.70
2022-10-29T11:25:02.675Z,0.80
2022-10-29T11:27:36.350Z,0.90
2022-10-29T11:30:08.644Z,0.73
2022-10-29T11:32:45.393Z,0.88
2022-10-29T11:35:15.280Z,0.73
2022-10-29T11:37:46.306Z,0.90
2022-10-29T11:40:15.642Z,1.20
2022-10-29T11:42:44.340Z,0.77
2022-10-29T11:45:16.217Z,0.82
2022-10-29T11:47:55.406Z,0.82
2022-10-29T11:50:27.818Z,1.10
2022-10-29T11:52:57.743Z,1.08
2022-10-29T11:55:30.514Z,0.98
2022-10-29T11:58:01.057Z,1.05
2022-10-29T12:00:34.333Z,0.90
2022-10-29T12:03:12.401Z,1.00
2022-10-29T12:05:43.817Z,1.02
2022-10-29T12:08:22.156Z,0.95
2022-10-29T12:10:52.546Z,0.77
2022-10-29T12:13:26.589Z,1.08
2022-10-29T12:16:03.681Z,0.98
2022-10-29T12:18:37.182Z,0.95
2022-10-29T12:21:09.667Z,1.05
2022-10-29T12:23:45.508Z,1.10
2022-10-29T12:26:16.657Z,1.00
2022-10-29T12:28:48.579Z,1.10
2022-10-29T12:31:26.023Z,1.10
2022-10-29T12:33:59.067Z,1.10
2022-10-29T12:36:31.508Z,1.08
2022-10-29T12:39:01.636Z,0.90
2022-10-29T12:41:33.494Z,0.82
2022-10-29T12:44:05.748Z,1.00
2022-10-29T12:46:39.834Z,1.00
2022-10-29T12:49:10.399Z,1.00
2022-10-29T12:51:43.818Z,0.93
2022-10-29T12:54:23.506Z,1.00
2022-10-29T12:56:52.263Z,1.30
2022-10-29T12:59:30.540Z,1.13
2022-10-29T13:02:19.655Z,0.88
2022-10-29T13:05:03.155Z,0.88
2022-10-29T13:07:31.784Z,0.90
2022-10-29T13:10:15.188Z,1.00
2022-10-29T13:12:58.780Z,1.10
2022-10-29T13:15:31.595Z,0.88
2022-10-29T13:18:03.454Z,1.20
2022-10-29T13:20:36.751Z,1.48
2022-10-29T13:23:09.701Z,1.38
2022-10-29T13:25:49.652Z,1.27
2022-10-29T13:28:37.017Z,1.38
2022-10-29T13:31:24.627Z,1.08
2022-10-29T13:33:54.556Z,1.33
2022-10-29T13:36:38.511Z,1.10
2022-10-29T13:39:20.678Z,0.80
2022-10-29T13:41:52.679Z,1.15
2022-10-29T13:44:22.677Z,1.20
2022-10-29T13:46:54.103Z,1.30
2022-10-29T13:49:26.141Z,1.08
2022-10-29T13:51:59.607Z,1.15
2022-10-29T13:54:33.947Z,1.10
2022-10-29T13:57:04.847Z,1.40
2022-10-29T13:59:37.999Z,1.50
2022-10-29T14:02:18.207Z,1.17
2022-10-29T14:04:51.643Z,1.30
2022-10-29T14:07:23.004Z,1.08
2022-10-29T14:09:53.830Z,1.10
2022-10-29T14:12:24.823Z,1.23
2022-10-29T14:14:57.885Z,0.90
2022-10-29T14:17:26.434Z,0.85
2022-10-29T14:19:58.007Z,1.10
2022-10-29T14:22:45.113Z,1.10
2022-10-29T14:25:38.946Z,1.15
2022-10-29T14:28:11.670Z,1.10
2022-10-29T14:30:42.387Z,1.17
2022-10-29T14:33:29.235Z,1.10
2022-10-29T14:36:02.308Z,0.85
2022-10-29T14:38:34.924Z,1.40
2022-10-29T14:41:03.630Z,1.20
2022-10-29T14:43:35.076Z,1.00
2022-10-29T14:46:22.493Z,0.98
2022-10-29T14:48:54.659Z,1.40
2022-10-29T14:51:24.950Z,1.60
2022-10-29T14:53:55.090Z,1.10
2022-10-29T14:56:26.656Z,1.08
2022-10-29T14:58:55.310Z,1.27
2022-10-29T15:01:24.034Z,0.98
2022-10-29T15:03:58.818Z,1.30
2022-10-29T15:06:29.966Z,1.48
2022-10-29T15:09:00.560Z,1.10
2022-10-29T15:11:36.870Z,1.27
2022-10-29T15:14:06.254Z,1.10
2022-10-29T15:16:38.303Z,1.42
2022-10-29T15:19:14.991Z,1.10
2022-10-29T15:21:47.782Z,1.85
2022-10-29T15:24:20.925Z,1.00
2022-10-29T15:26:50.841Z,1.00
2022-10-29T15:29:26.785Z,1.02
2022-10-29T15:32:01.084Z,0.90
2022-10-29T15:34:32.770Z,1.30
2022-10-29T15:37:15.851Z,0.93
2022-10-29T15:40:01.287Z,1.20
2022-10-29T15:42:30.621Z,1.52
2022-10-29T15:45:05.262Z,1.25
2022-10-29T15:47:33.944Z,1.20
2022-10-29T15:50:02.551Z,1.25
2022-10-29T15:52:33.755Z,1.13
2022-10-29T15:55:02.435Z,1.38
2022-10-29T15:57:31.501Z,1.15
2022-10-29T16:02:38.039Z,1.60
2022-10-29T16:05:07.060Z,1.10
2022-10-29T16:07:37.044Z,1.50
2022-10-29T16:10:05.912Z,1.10
2022-10-29T16:12:34.541Z,1.30
2022-10-29T16:15:03.610Z,1.40
2022-10-29T16:17:32.727Z,1.30
2022-10-29T16:20:01.336Z,1.48
2022-10-29T16:22:30.923Z,1.20
2022-10-29T16:25:00.881Z,1.70
2022-10-29T16:27:29.561Z,1.42
2022-10-29T16:29:58.113Z,1.38
2022-10-29T16:32:27.020Z,1.08
2022-10-29T16:34:55.606Z,1.05
2022-10-29T16:37:24.176Z,1.33
2022-10-29T16:39:52.761Z,1.33
2022-10-29T16:42:29.989Z,1.40
2022-10-29T16:44:58.846Z,1.20
2022-10-29T16:47:28.602Z,1.20
2022-10-29T16:49:57.442Z,1.27
2022-10-29T16:52:29.600Z,1.10
2022-10-29T16:54:58.535Z,1.33
2022-10-29T16:57:29.518Z,1.27
2022-10-29T16:59:58.246Z,1.40
2022-10-29T17:02:26.954Z,1.30
2022-10-29T17:04:55.724Z,1.60
2022-10-29T17:07:24.464Z,1.48
2022-10-29T17:09:53.432Z,1.20
2022-10-29T17:12:21.995Z,1.27
2022-10-29T17:14:51.934Z,1.00
2022-10-29T17:17:20.545Z,1.40
2022-10-29T17:19:49.091Z,1.00
2022-10-29T17:22:17.695Z,1.10
2022-10-29T17:24:46.544Z,1.33
2022-10-29T17:27:15.579Z,1.48
2022-10-29T17:29:44.150Z,1.38
2022-10-29T17:32:14.075Z,1.33
2022-10-29T17:34:42.703Z,1.88
2022-10-29T17:37:11.947Z,1.38
2022-10-29T17:39:40.523Z,1.40
2022-10-29T17:42:09.308Z,1.50
2022-10-29T17:44:37.905Z,1.55
2022-10-29T17:47:06.517Z,1.50
2022-10-29T17:49:36.487Z,1.52
2022-10-29T17:52:05.286Z,1.23
2022-10-29T17:54:35.171Z,1.10
2022-10-29T17:57:04.024Z,1.25
2022-10-29T17:59:32.627Z,1.02
2022-10-29T18:02:01.335Z,1.42
2022-10-29T18:04:29.969Z,1.23
2022-10-29T18:06:59.881Z,1.15
2022-10-29T18:09:28.597Z,1.30
2022-10-29T18:11:57.162Z,1.25
2022-10-29T18:14:25.757Z,1.13
2022-10-29T18:16:54.336Z,1.48
2022-10-29T18:19:23.818Z,1.23
2022-10-29T18:21:52.506Z,1.50
2022-10-29T18:24:24.210Z,1.40
2022-10-29T18:26:53.077Z,1.48
2022-10-29T18:29:21.631Z,1.33
2022-10-29T18:31:50.228Z,1.80
2022-10-29T18:34:18.990Z,1.38
2022-10-29T18:36:47.928Z,1.20
2022-10-29T18:39:16.475Z,1.38
2022-10-29T18:41:46.386Z,1.15
2022-10-29T18:44:14.964Z,1.30
2022-10-29T18:46:43.551Z,1.30
2022-10-29T18:49:13.061Z,1.10
2022-10-29T18:51:41.655Z,1.42
2022-10-29T18:54:12.794Z,1.45
2022-10-29T18:56:41.429Z,1.17
2022-10-29T18:59:13.250Z,1.65
2022-10-29T19:01:41.939Z,1.30
2022-10-29T19:04:12.487Z,1.40
2022-10-29T19:06:41.071Z,1.45
2022-10-29T19:09:10.496Z,1.25
2022-10-29T19:11:39.047Z,1.23
2022-10-29T19:14:08.417Z,1.23
2022-10-29T19:16:38.349Z,1.35
2022-10-29T19:19:07.829Z,1.20
2022-10-29T19:21:37.118Z,1.08
2022-10-29T19:24:06.294Z,0.95
2022-10-29T19:26:36.049Z,1.40
2022-10-29T19:29:05.321Z,1.08
2022-10-29T19:31:34.676Z,1.08
2022-10-29T19:34:06.148Z,1.10
2022-10-29T19:36:35.590Z,1.20
2022-10-29T19:39:04.283Z,1.30
2022-10-29T19:41:33.000Z,1.15
2022-10-29T19:44:02.088Z,0.95
2022-10-29T19:46:31.094Z,1.08
2022-10-29T19:49:00.656Z,1.17
2022-10-29T19:51:30.599Z,1.48
2022-10-29T19:54:01.998Z,1.30
2022-10-29T19:56:30.767Z,0.90
2022-10-29T19:58:59.341Z,0.82
2022-10-29T20:01:28.021Z,1.10
2022-10-29T20:03:56.737Z,1.17
2022-10-29T20:06:25.648Z,1.00
2022-10-29T20:08:55.639Z,1.10
2022-10-29T20:11:24.191Z,0.93
2022-10-29T20:13:52.787Z,0.90
2022-10-29T20:16:22.190Z,1.13
2022-10-29T20:18:50.976Z,0.90
2022-10-29T20:21:19.537Z,1.10
2022-10-29T20:23:48.101Z,1.15
2022-10-29T20:26:18.127Z,1.08
2022-10-29T20:28:46.726Z,1.17
2022-10-29T20:31:26.134Z,1.05
2022-10-29T20:33:57.244Z,0.88
2022-10-29T20:36:26.202Z,1.00
2022-10-29T20:38:55.261Z,0.93
2022-10-29T20:41:25.518Z,0.95
2022-10-29T20:43:54.711Z,1.05
2022-10-29T20:46:23.654Z,0.90
2022-10-29T20:48:52.382Z,0.85
2022-10-29T20:51:23.279Z,0.90
2022-10-29T20:53:52.496Z,0.90
2022-10-29T20:56:21.994Z,0.88
2022-10-29T20:58:52.260Z,1.00
2022-10-29T21:01:22.092Z,0.80
2022-10-29T21:03:50.994Z,0.93
2022-10-29T21:06:19.593Z,0.80
2022-10-29T21:08:48.668Z,0.90
2022-10-29T21:11:17.987Z,0.82
2022-10-29T21:13:46.699Z,0.80
2022-10-29T21:16:18.462Z,0.70
2022-10-29T21:18:47.964Z,1.10
2022-10-29T21:21:16.719Z,0.75
2022-10-29T21:23:45.437Z,0.93
2022-10-29T21:26:14.608Z,0.82
2022-10-29T21:28:43.151Z,0.65
2022-10-29T21:31:11.927Z,0.80
2022-10-29T21:33:42.032Z,0.93
2022-10-29T21:36:12.302Z,0.80
2022-10-29T21:38:40.850Z,0.80
2022-10-29T21:41:09.489Z,1.10
2022-10-29T21:43:38.125Z,0.85
2022-10-29T21:46:06.860Z,0.73
2022-10-29T21:48:35.565Z,1.50
2022-10-29T21:51:06.504Z,1.05
2022-10-29T21:53:35.147Z,0.90
2022-10-29T21:56:04.678Z,0.77
2022-10-29T21:58:33.580Z,0.80
2022-10-29T22:01:06.163Z,0.90
2022-10-29T22:03:35.136Z,1.05
2022-10-29T22:06:06.314Z,0.90
2022-10-29T22:08:35.091Z,1.00
2022-10-29T22:11:04.019Z,1.05
2022-10-29T22:13:33.070Z,0.80
2022-10-29T22:16:01.710Z,0.77
2022-10-29T22:18:30.783Z,0.60
2022-10-29T22:21:10.999Z,0.80
2022-10-29T22:23:43.112Z,0.82
2022-10-29T22:26:11.963Z,0.60
2022-10-29T22:28:40.520Z,0.73
2022-10-29T22:31:09.109Z,1.02
2022-10-29T22:33:37.749Z,0.93
2022-10-29T22:36:07.418Z,0.70
2022-10-29T22:38:37.578Z,1.10
2022-10-29T22:41:06.961Z,0.80
2022-10-29T22:43:35.927Z,0.80
2022-10-29T22:46:05.095Z,0.80
2022-10-29T22:48:33.738Z,0.85
2022-10-29T22:51:02.898Z,0.60
2022-10-29T22:53:31.547Z,0.80
2022-10-29T22:56:01.503Z,0.60
2022-10-29T22:58:30.373Z,0.60
2022-10-29T23:01:03.209Z,0.75
2022-10-29T23:03:31.883Z,0.73
2022-10-29T23:06:00.737Z,0.65
2022-10-29T23:08:29.587Z,0.50
2022-10-29T23:10:58.153Z,0.70
2022-10-29T23:13:28.149Z,0.70
2022-10-29T23:15:56.801Z,1.10
2022-10-29T23:18:25.388Z,0.77
2022-10-29T23:21:00.229Z,0.60
2022-10-29T23:23:29.620Z,0.70
2022-10-29T23:26:01.701Z,0.65
2022-10-29T23:28:32.207Z,0.70
2022-10-29T23:31:01.331Z,0.63
2022-10-29T23:33:30.142Z,0.65
2022-10-29T23:36:02.736Z,0.60
2022-10-29T23:38:31.402Z,0.70
2022-10-29T23:41:00.044Z,0.70
2022-10-29T23:43:28.601Z,0.90
2022-10-29T23:45:58.558Z,0.80
2022-10-29T23:48:27.398Z,0.88
2022-10-29T23:50:56.502Z,0.80
2022-10-29T23:53:25.133Z,0.77
2022-10-29T23:55:53.701Z,0.80
2022-10-29T23:58:22.372Z,0.88
